VYYYVYMD

Guest
Details From VYYY - YANGON INTL
To VYMD - MANDALAY INTL
Flight Number -
Tags generated
Created
Modified
Stats Distance 291 nm / 538 km
Max Altitude 35,000 ft / 10,668 m
Waypoints 4
Social Downloads 5
Likes 0
Share VATSIM

Download

Looking for another format? Having issues loading an existing format? Contact us
Advertisement - Login to hide

Notes

Basic altitude profile: - Ascent Rate: 2500ft/min - Ascent Speed: 250kts - Cruise Altitude: 35000ft - Cruise Speed: 420kts - Descent Rate: 1500ft/min - Descent Speed: 250kts Options: - Use NATs: yes - Use PACOTS: yes - Use low airways: yes - Use high airways: yes

Route

VYYY IKUGI B463 ASUMO VYMD

ID Type Via Altitude Latitude Longitude Leg Dist Tot Dist Heading (true) Name
O VYYY APT - 0 ft / 0 m 16.91084˚ 96.13568˚ - 0 nm - YANGON INTL
IKUGI FIX - 35,000 ft / 10,668 m 18.56784˚ 96.39644˚ 100 nm 100 nm 8° / 9° -
ASUMO FIX B463 (AWY-LO) 10,000 ft / 3,048 m 20.95100˚ 96.16308˚ 143 nm 244 nm 355° / 355° -
O VYMD APT - 0 ft / 0 m 21.70101˚ 95.97779˚ 46 nm 290 nm 347° / 347° MANDALAY INTL

Altitude Profile

Advertisement - Login to hide

Weather


0- 5 10 15 20 25 30 35+ Temperature / ° C

Clouds and Precipitation
Forecast for 2017-12-14 00:00 UTC. Updated an hour ago

Ground ~20,000 ft ~40,000 ft Winds

VYYY

Details ICAO VYYY (RGN)
Name YANGON INTL
Region Myanmar
Timezone Asia/Rangoon (UTC+6.5)
Stats Elevation 109 ft / 33 m (AMSL)
Location 16.910841° 96.135680°
Runways 1
Magnetic Variation 0.635° W

METAR

VYYY 132230Z 32003KT 6000 HZ FEW018 23/21 Q1011

Decode

TAF

TAF TAF VYYY 131700Z 1318/1418 34005KT 8000 SCT018 BECMG 1323/1401 3000 BR TEMPO 1406/1412 9000 SCT016 FEW020TCU

Decode

Departure Runways

ID Width Length Bearing (true) Bearing (mag) Surface Threshold Offset Overrun Length
03 200 ft / 61 m 11,251 ft / 3,429 m 33.10° 33.73° Asphalt 0 ft / 0 m 194 ft / 59 m
21 200 ft / 61 m 11,251 ft / 3,429 m 213.10° 213.73° Asphalt 276 ft / 84 m 0 ft / 0 m

VYMD

Details ICAO VYMD (MDL)
Name MANDALAY INTL
Region Myanmar
Timezone Asia/Rangoon (UTC+6.5)
Stats Elevation 300 ft / 91 m (AMSL)
Location 21.701010° 95.977795°
Runways 1
Magnetic Variation 0.621° W

METAR

VYMD 132230Z 00000KT 4000 BR FEW025 16/15 Q1012

Decode

TAF

TAF VYMD 131700Z 1318/1418 29003KT 6000 SCT018 FEW020TCU TEMPO 1318/1324 32004KT 4000 BR SCT015 FEW018CB

Decode

Destination Runways

ID Width Length Bearing (true) Bearing (mag) Surface Threshold Offset Overrun Length
17 200 ft / 61 m 14,062 ft / 4,286 m 170.60° 171.22° Concrete 0 ft / 0 m 200 ft / 61 m
35 200 ft / 61 m 14,062 ft / 4,286 m 350.60° 351.22° Concrete 0 ft / 0 m 200 ft / 61 m

Approach Navaids

Runway Type Ident Frequency Range Bearing (true) Bearing (mag) Slope Elevation
17 Localiser IMIA 110.50 MHz 18 nm / 33 km 170.62° 171.24° - 300 ft / 91 m (AMSL)
17 Glidescope IMIA 110.50 MHz 10 nm / 19 km 170.60° 171.22° 3.00° 286 ft / 87 m (AMSL)
17 DME IMIA 110.50 MHz 18 nm / 33 km - - - 300 ft / 91 m (AMSL)

Popular Alternatives